West Point, Mississippi
Current Conditions -  °F | °C
As of 12:50 PM on Friday 28 Nov 2014 (Local Time) from KGTR Reporting Station
Clear Clear  
Wind Chill: 45°   Ceiling: Unl
Heat Index: 48°   Visibility: 10mi
Dew Point: 27°   Wind: 7mph
Humidity: 43%   Direction: 160°SSE
Pressure: 30.34"   Gusts: NA
Location:  33.61°N, 88.65°W
Report Text: KGTR 281850Z 16006KT 10SM SKC 09/M03 A3034
Loading
Personal Weather Stations






























Interactive Weather Map New forecast layout! Learn more

10-Day Weather Forecast

Advertisements
Track Severe Weather on mobile